Weather at Long Atip Airport

Public forecast

Using degrees Celsius for public forecast. Weather courtesy of forecast.io.

Closest aviation weather report (METAR) to Long Atip Airport

Closest report is Miri Airport, 52.4 nm (97.0 km) NW. Retrieved 2022/05/23 07:00 UTC (25 minutes ago):

WBGR 230700Z 32007KT 240V010 9999 SCT016 33/26 Q1006

Closest aviation forecast (TAF) to Long Atip Airport

Closest forecast is Miri Airport, 52.4 nm (97.0 km) NW. Retrieved 2022/05/23 06:00 UTC (1 hour ago):

TAF WBGR 230500Z 2306/2406 30006KT 9999 FEW016